Time;durP1;ratioP1;P1;durP2;ratioP2;P2;SDS_P1;SDS_P2;PMS_P1;PMS_P2;Temp;Humidity;BMP_temperature;BMP_pressure;BME280_temperature;BME280_humidity;BME280_pressure;Samples;Min_cycle;Max_cycle;Signal;HPM_P1;HPM_P2
2021/12/23 00:00:01;;;;;;;24.40;15.23;;;;;;;-5.22;100.00;96647.09;5015052;28;101699;-60
2021/12/23 00:02:36;;;;;;;24.63;16.20;;;;;;;-5.37;100.00;96656.34;5007668;28;102385;-60
2021/12/23 00:05:03;;;;;;;23.93;15.07;;;;;;;-5.51;100.00;96658.63;5011510;28;101861;-60
2021/12/23 00:07:30;;;;;;;22.40;14.50;;;;;;;-5.44;100.00;96660.47;5009993;28;105850;-60
2021/12/23 00:10:06;;;;;;;21.77;14.70;;;;;;;-5.32;100.00;96663.66;5010558;28;102885;-60
2021/12/23 00:12:36;;;;;;;22.50;15.07;;;;;;;-5.49;100.00;96661.88;5011588;28;101810;-60
2021/12/23 00:15:04;;;;;;;24.20;15.20;;;;;;;-5.24;100.00;96653.41;5011394;28;102631;-60
2021/12/23 00:17:54;;;;;;;21.10;15.07;;;;;;;-5.17;100.00;96660.44;5010948;28;102566;-60
2021/12/23 00:25:54;;;;;;;22.80;14.53;;;;;;;-5.17;100.00;96644.88;5010795;28;101937;-60
2021/12/23 00:28:22;;;;;;;22.50;14.13;;;;;;;-5.19;100.00;96643.41;5043293;27;105647;-60
2021/12/23 00:30:49;;;;;;;19.87;14.07;;;;;;;-5.21;100.00;96640.94;5010151;28;102718;-61
2021/12/23 00:33:17;;;;;;;21.50;14.07;;;;;;;-5.15;100.00;96642.94;5009432;28;101939;-60
2021/12/23 00:35:44;;;;;;;23.03;14.30;;;;;;;-5.35;100.00;96643.25;5009656;28;105049;-60
2021/12/23 00:38:18;;;;;;;22.40;14.83;;;;;;;-5.45;100.00;96639.91;4992380;28;106064;-60
2021/12/23 00:40:45;;;;;;;21.90;13.77;;;;;;;-5.44;100.00;96636.34;5009339;28;101905;-60
2021/12/23 00:43:12;;;;;;;20.90;14.20;;;;;;;-5.66;100.00;96637.56;5009399;28;105547;-60
2021/12/23 00:45:41;;;;;;;22.40;14.07;;;;;;;-5.74;100.00;96634.88;5012335;28;105725;-60
2021/12/23 00:48:08;;;;;;;22.40;13.73;;;;;;;-5.65;100.00;96641.78;5009447;28;104144;-60
2021/12/23 00:50:35;;;;;;;20.60;12.90;;;;;;;-5.86;100.00;96630.91;5008810;28;105830;-60
2021/12/23 00:53:06;;;;;;;17.30;13.43;;;;;;;-5.91;100.00;96624.50;5009176;28;101908;-60
2021/12/23 00:55:33;;;;;;;23.60;13.60;;;;;;;-5.79;100.00;96625.94;5009484;28;104003;-60
2021/12/23 00:58:00;;;;;;;21.97;13.17;;;;;;;-5.75;100.00;96627.25;5008882;28;105831;-60
2021/12/23 01:00:28;;;;;;;20.30;14.23;;;;;;;-5.71;100.00;96621.66;5010619;28;101759;-60
2021/12/23 01:02:59;;;;;;;21.30;13.23;;;;;;;-5.61;100.00;96632.78;5009186;28;105245;-60
2021/12/23 01:05:27;;;;;;;19.53;12.77;;;;;;;-5.65;100.00;96628.00;5013521;28;103118;-60
2021/12/23 01:07:54;;;;;;;21.30;12.40;;;;;;;-5.79;100.00;96615.56;5010585;28;102604;-60
2021/12/23 01:10:23;;;;;;;22.53;12.87;;;;;;;-6.01;100.00;96614.19;5008578;28;103879;-60
2021/12/23 01:12:55;;;;;;;19.33;12.77;;;;;;;-5.92;100.00;96613.34;5009033;28;102042;-60
2021/12/23 01:18:11;;;;;;;18.73;12.13;;;;;;;-5.81;100.00;96612.31;5007841;28;105636;-60
2021/12/23 01:20:45;;;;;;;19.90;12.37;;;;;;;-6.23;100.00;96606.81;5009026;28;101831;-60
2021/12/23 01:23:13;;;;;;;19.90;12.30;;;;;;;-5.96;100.00;96604.22;5008439;28;105208;-60
2021/12/23 01:25:40;;;;;;;20.23;12.07;;;;;;;-5.77;100.00;96614.47;5042188;27;105271;-60
2021/12/23 01:28:09;;;;;;;20.70;13.37;;;;;;;-5.90;100.00;96608.03;5012291;28;101998;-60
2021/12/23 01:30:38;;;;;;;18.60;12.17;;;;;;;-5.90;100.00;96601.06;5009574;28;102535;-60
2021/12/23 01:33:08;;;;;;;20.90;12.73;;;;;;;-5.98;100.00;96595.81;5008582;28;102094;-60
2021/12/23 01:35:35;;;;;;;20.77;13.03;;;;;;;-5.85;100.00;96600.66;5008518;28;106280;-60
2021/12/23 01:38:02;;;;;;;22.70;13.80;;;;;;;-5.79;100.00;96595.66;5008110;28;103784;-60
2021/12/23 01:40:30;;;;;;;22.60;13.73;;;;;;;-5.79;100.00;96594.84;5008748;28;101858;-60
2021/12/23 01:42:59;;;;;;;24.10;15.03;;;;;;;-5.72;100.00;96588.94;5009906;28;102399;-60
2021/12/23 01:45:29;;;;;;;25.10;13.73;;;;;;;-5.66;100.00;96585.78;5007921;28;105946;-60
2021/12/23 01:47:56;;;;;;;24.30;14.40;;;;;;;-5.79;100.00;96587.09;5008383;28;102154;-60
2021/12/23 01:50:28;;;;;;;23.30;14.60;;;;;;;-5.70;100.00;96583.59;5011076;28;105550;-60
2021/12/23 01:52:55;;;;;;;27.63;14.90;;;;;;;-5.78;100.00;96581.75;5008286;28;101860;-60
2021/12/23 01:55:22;;;;;;;22.37;14.97;;;;;;;-5.60;100.00;96572.25;5008403;28;105320;-60
2021/12/23 01:57:51;;;;;;;23.77;15.40;;;;;;;-5.62;100.00;96579.31;5007666;28;105501;-60
2021/12/23 02:00:20;;;;;;;24.03;14.73;;;;;;;-5.60;100.00;96580.00;5008079;28;101957;-60
2021/12/23 02:02:48;;;;;;;21.23;14.20;;;;;;;-5.78;100.00;96575.75;5008096;28;103762;-60
2021/12/23 02:05:15;;;;;;;21.03;13.60;;;;;;;-5.54;100.00;96574.25;5007503;28;105453;-60
2021/12/23 02:07:43;;;;;;;21.63;14.93;;;;;;;-5.44;100.00;96580.16;5007929;28;101777;-60
2021/12/23 02:10:11;;;;;;;20.17;14.27;;;;;;;-5.49;100.00;96577.19;5009473;28;102585;-60
2021/12/23 02:12:41;;;;;;;21.27;13.33;;;;;;;-5.58;100.00;96572.91;5011269;28;103995;-60
2021/12/23 02:15:08;;;;;;;21.97;13.43;;;;;;;-5.52;100.00;96571.50;5008050;28;104995;-60
2021/12/23 02:17:37;;;;;;;17.47;13.00;;;;;;;-5.51;100.00;96567.94;5006344;28;103749;-60
2021/12/23 02:20:07;;;;;;;23.20;14.03;;;;;;;-5.39;100.00;96567.59;5008006;28;102015;-60
2021/12/23 02:22:34;;;;;;;21.50;13.57;;;;;;;-5.34;100.00;96567.91;5007892;28;105604;-60
2021/12/23 02:25:01;;;;;;;22.00;14.33;;;;;;;-5.34;100.00;96561.94;5007458;28;104309;-60
2021/12/23 02:27:28;;;;;;;19.70;13.33;;;;;;;-5.35;100.00;96561.13;5007975;28;102088;-60
2021/12/23 02:29:56;;;;;;;21.53;14.73;;;;;;;-5.31;100.00;96559.88;5007676;28;104903;-60
2021/12/23 02:32:23;;;;;;;23.67;14.80;;;;;;;-5.29;100.00;96552.75;5006624;28;105574;-60
2021/12/23 02:34:50;;;;;;;20.77;13.60;;;;;;;-5.36;100.00;96546.53;5011194;28;102190;-60
2021/12/23 02:37:19;;;;;;;20.60;13.97;;;;;;;-5.39;100.00;96531.31;5007140;28;106056;-60
2021/12/23 02:39:46;;;;;;;18.47;13.17;;;;;;;-5.29;100.00;96533.81;5007823;28;101900;-60
2021/12/23 02:42:14;;;;;;;18.27;13.03;;;;;;;-5.21;100.00;96539.88;5007848;28;104806;-60
2021/12/23 02:44:41;;;;;;;19.83;13.27;;;;;;;-5.18;100.00;96533.56;5008426;28;102786;-60
2021/12/23 02:47:08;;;;;;;17.80;12.20;;;;;;;-5.24;100.00;96532.38;5007728;28;101868;-60
2021/12/23 02:49:35;;;;;;;18.27;13.20;;;;;;;-5.22;100.00;96527.88;5007516;28;105130;-60
2021/12/23 02:52:02;;;;;;;19.80;13.10;;;;;;;-5.09;100.00;96528.28;5006921;28;105322;-60
2021/12/23 02:54:31;;;;;;;20.80;13.47;;;;;;;-5.17;100.00;96515.28;5007829;28;102007;-60
2021/12/23 02:57:00;;;;;;;18.83;13.17;;;;;;;-5.25;100.00;96510.03;5011808;28;102253;-60
2021/12/23 02:59:27;;;;;;;18.80;13.30;;;;;;;-5.34;100.00;96508.31;5007483;28;102319;-60
2021/12/23 03:01:54;;;;;;;17.50;12.07;;;;;;;-5.24;100.00;96505.66;5007310;28;104423;-60
2021/12/23 03:04:21;;;;;;;16.67;11.93;;;;;;;-5.27;100.00;96511.97;5006864;28;105409;-60
2021/12/23 03:06:48;;;;;;;19.90;13.07;;;;;;;-5.23;100.00;96510.69;5007482;28;101880;-60
2021/12/23 03:09:15;;;;;;;17.77;12.70;;;;;;;-5.24;100.00;96509.06;5008890;28;101708;-60
2021/12/23 03:11:43;;;;;;;19.80;12.43;;;;;;;-5.29;100.00;96508.69;5006696;28;105252;-60
2021/12/23 03:14:11;;;;;;;17.30;12.20;;;;;;;-5.48;100.00;96501.09;5007128;28;101916;-60
2021/12/23 03:16:39;;;;;;;16.20;11.93;;;;;;;-5.48;100.00;96500.28;5010328;28;104857;-60
2021/12/23 03:19:07;;;;;;;20.53;12.77;;;;;;;-5.39;100.00;96496.81;5008554;28;101846;-60
2021/12/23 03:21:35;;;;;;;18.47;12.33;;;;;;;-5.33;100.00;96506.56;5007121;28;105033;-60
2021/12/23 03:24:03;;;;;;;19.07;13.20;;;;;;;-5.36;100.00;96497.31;5008061;28;103015;-60
2021/12/23 03:26:30;;;;;;;18.60;12.77;;;;;;;-5.34;100.00;96491.97;5007040;28;101881;-60
2021/12/23 03:28:59;;;;;;;17.00;12.10;;;;;;;-5.42;100.00;96490.13;5007241;28;106062;-60
2021/12/23 03:31:26;;;;;;;19.50;13.30;;;;;;;-5.37;100.00;96477.56;5010566;28;102606;-60
2021/12/23 03:33:53;;;;;;;18.43;13.10;;;;;;;-5.32;100.00;96474.50;5010467;28;101981;-60
2021/12/23 03:36:20;;;;;;;16.43;12.37;;;;;;;-5.33;100.00;96475.47;5010404;28;105060;-60
2021/12/23 03:38:48;;;;;;;17.23;12.10;;;;;;;-5.37;100.00;96472.38;5014723;28;102662;-60
2021/12/23 03:41:15;;;;;;;18.97;12.70;;;;;;;-5.41;100.00;96475.41;5010490;28;104788;-60
2021/12/23 03:43:42;;;;;;;16.93;11.77;;;;;;;-5.50;100.00;96478.91;5009769;28;105464;-60
2021/12/23 03:46:11;;;;;;;19.13;12.00;;;;;;;-5.65;100.00;96473.44;5010410;28;101909;-60
2021/12/23 03:48:38;;;;;;;17.50;12.27;;;;;;;-5.63;100.00;96471.50;5010257;28;105472;-60
2021/12/23 03:51:05;;;;;;;19.70;12.80;;;;;;;-5.77;100.00;96477.22;5009843;28;105935;-60
2021/12/23 03:53:32;;;;;;;16.30;11.93;;;;;;;-5.72;100.00;96477.56;5009560;28;102064;-60
2021/12/23 03:55:59;;;;;;;16.73;11.40;;;;;;;-5.51;100.00;96480.66;5009877;28;104257;-60
2021/12/23 03:58:27;;;;;;;17.53;12.60;;;;;;;-5.46;100.00;96481.03;5009740;28;105458;-60
2021/12/23 04:00:54;;;;;;;18.77;11.97;;;;;;;-5.45;100.00;96476.69;5013520;28;101846;-61
2021/12/23 04:03:23;;;;;;;19.70;12.70;;;;;;;-5.52;100.00;96473.88;5010650;28;102671;-60
2021/12/23 04:05:49;;;;;;;18.67;12.67;;;;;;;-5.42;100.00;96466.81;5011459;28;102217;-60
2021/12/23 04:08:16;;;;;;;18.10;11.60;;;;;;;-5.41;100.00;96457.28;5011388;28;102597;-60
2021/12/23 04:10:44;;;;;;;17.70;11.93;;;;;;;-5.35;100.00;96460.06;5009602;28;104646;-60
2021/12/23 04:13:11;;;;;;;19.07;12.40;;;;;;;-5.26;100.00;96446.22;5010011;28;101901;-60
2021/12/23 04:15:38;;;;;;;16.67;11.70;;;;;;;-5.18;100.00;96440.28;5009956;28;103582;-60
2021/12/23 04:18:05;;;;;;;16.50;12.20;;;;;;;-5.13;100.00;96446.59;5009083;28;105602;-60
2021/12/23 04:20:45;;;;;;;19.57;12.70;;;;;;;-5.12;100.00;96448.25;5011099;28;101826;-60
2021/12/23 04:23:12;;;;;;;20.17;12.90;;;;;;;-5.19;100.00;96464.56;5012873;28;105467;-60
2021/12/23 04:25:39;;;;;;;19.63;12.97;;;;;;;-5.44;100.00;96466.16;5009817;28;102003;-60
2021/12/23 04:28:06;;;;;;;18.90;13.10;;;;;;;-5.51;100.00;96457.34;5009814;28;105438;-60
2021/12/23 04:30:34;;;;;;;17.43;12.93;;;;;;;-5.71;100.00;96462.84;5008942;28;105083;-60
2021/12/23 04:33:02;;;;;;;19.63;12.47;;;;;;;-5.77;100.00;96459.09;5009411;28;102167;-60
2021/12/23 04:35:31;;;;;;;18.07;12.27;;;;;;;-5.63;100.00;96468.13;5011759;28;101731;-60
2021/12/23 04:38:00;;;;;;;19.67;12.80;;;;;;;-5.81;100.00;96462.97;5009201;28;105289;-60
2021/12/23 04:40:30;;;;;;;18.60;12.70;;;;;;;-5.64;100.00;96453.53;5008919;28;101863;-60
2021/12/23 04:42:57;;;;;;;19.33;12.90;;;;;;;-5.70;100.00;96448.94;5009534;28;105085;-61
2021/12/23 04:45:24;;;;;;;19.23;12.60;;;;;;;-5.79;100.00;96445.47;5013629;28;102586;-60
2021/12/23 04:47:52;;;;;;;19.60;12.43;;;;;;;-5.77;100.00;96443.56;5043096;27;104918;-60
2021/12/23 04:50:19;;;;;;;18.27;12.13;;;;;;;-5.63;100.00;96424.88;5008677;28;105075;-60
2021/12/23 04:52:47;;;;;;;22.20;14.57;;;;;;;-5.53;100.00;96420.44;5009354;28;101845;-60
2021/12/23 04:55:17;;;;;;;19.30;13.83;;;;;;;-5.56;100.00;96414.75;5009383;28;104958;-60
2021/12/23 04:57:44;;;;;;;20.20;14.83;;;;;;;-5.49;100.00;96406.22;5008821;28;105537;-60
2021/12/23 05:00:14;;;;;;;23.83;14.43;;;;;;;-5.64;100.00;96410.31;5008889;28;101855;-60
2021/12/23 05:02:41;;;;;;;20.30;13.80;;;;;;;-5.69;100.00;96402.19;5009172;28;105796;-60
2021/12/23 05:05:09;;;;;;;17.70;13.50;;;;;;;-5.64;100.00;96407.72;5008448;28;103972;-60
2021/12/23 05:07:36;;;;;;;18.43;12.37;;;;;;;-5.90;100.00;96400.94;5012531;28;101809;-60
2021/12/23 05:10:04;;;;;;;19.97;13.87;;;;;;;-5.68;100.00;96396.03;5008337;28;105389;-60
2021/12/23 05:12:35;;;;;;;19.33;13.30;;;;;;;-5.67;100.00;96402.03;5008936;28;102089;-60
2021/12/23 05:15:02;;;;;;;19.10;12.73;;;;;;;-5.74;100.00;96401.81;5010550;28;102635;-60
2021/12/23 05:17:29;;;;;;;21.10;13.77;;;;;;;-5.71;100.00;96396.34;5008463;28;102775;-60
2021/12/23 05:19:56;;;;;;;18.43;13.77;;;;;;;-5.60;100.00;96392.69;5008884;28;101889;-60
2021/12/23 05:22:23;;;;;;;20.30;13.90;;;;;;;-5.53;100.00;96393.72;5008892;28;105199;-60
2021/12/23 05:24:51;;;;;;;18.07;13.07;;;;;;;-5.58;100.00;96389.00;5008159;28;106492;-60
2021/12/23 05:27:18;;;;;;;17.40;12.37;;;;;;;-5.69;100.00;96373.69;5012233;28;102035;-60
2021/12/23 05:29:47;;;;;;;19.77;12.90;;;;;;;-5.71;100.00;96370.47;5008267;28;105932;-60
2021/12/23 05:32:13;;;;;;;18.60;12.43;;;;;;;-5.73;100.00;96377.53;5007914;28;101910;-60
2021/12/23 05:34:41;;;;;;;19.40;12.70;;;;;;;-5.89;100.00;96366.31;5008655;28;105060;-60
2021/12/23 05:37:08;;;;;;;18.20;13.17;;;;;;;-5.78;100.00;96360.84;5009573;28;102613;-60
2021/12/23 05:39:35;;;;;;;17.00;12.63;;;;;;;-5.77;100.00;96376.25;5010099;28;101813;-60
2021/12/23 05:42:03;;;;;;;17.73;12.57;;;;;;;-5.93;100.00;96365.81;5009873;28;102379;-60
2021/12/23 05:44:30;;;;;;;21.40;13.80;;;;;;;-5.95;100.00;96362.53;5007885;28;105781;-60
2021/12/23 05:46:59;;;;;;;19.37;13.17;;;;;;;-5.85;100.00;96360.66;5008205;28;101912;-60
2021/12/23 05:49:26;;;;;;;18.53;12.70;;;;;;;-5.90;100.00;96365.47;5011140;28;106516;-60
2021/12/23 05:51:53;;;;;;;19.10;13.23;;;;;;;-5.91;100.00;96358.69;5007154;28;102000;-60
2021/12/23 05:54:20;;;;;;;18.10;13.87;;;;;;;-6.03;100.00;96365.06;5007518;28;104962;-60
2021/12/23 05:56:47;;;;;;;20.10;13.83;;;;;;;-6.06;100.00;96365.34;5007095;28;105637;-60
2021/12/23 05:59:14;;;;;;;20.93;13.57;;;;;;;-6.06;100.00;96373.13;5004768;28;101832;-60
2021/12/23 06:01:41;;;;;;;20.97;13.10;;;;;;;-5.95;100.00;96369.50;4988208;28;105238;-60
2021/12/23 06:04:10;;;;;;;18.57;12.43;;;;;;;-6.07;100.00;96374.09;4987839;28;104000;-60
2021/12/23 06:06:37;;;;;;;18.07;12.33;;;;;;;-6.08;100.00;96382.81;4988228;28;101791;-60
2021/12/23 06:09:04;;;;;;;21.97;13.53;;;;;;;-5.98;100.00;96380.97;4988598;28;103914;-60
2021/12/23 06:11:32;;;;;;;18.53;13.70;;;;;;;-6.04;100.00;96383.31;4991370;28;105875;-60
2021/12/23 06:13:59;;;;;;;19.33;13.43;;;;;;;-6.15;100.00;96386.97;4988597;28;103795;-60
2021/12/23 06:16:26;;;;;;;18.90;12.77;;;;;;;-6.04;100.00;96388.50;4987785;28;105400;-60
2021/12/23 06:18:53;;;;;;;20.07;14.03;;;;;;;-6.09;100.00;96385.53;4988027;28;102380;-60
2021/12/23 06:21:26;;;;;;;18.03;12.70;;;;;;;-6.18;100.00;96387.25;4988225;28;103980;-60
2021/12/23 06:23:54;;;;;;;19.63;13.37;;;;;;;-6.21;100.00;96374.59;4987574;28;106043;-60
2021/12/23 06:26:43;;;;;;;22.50;14.00;;;;;;;-6.05;100.00;96382.50;4988246;28;101965;-60
2021/12/23 06:29:14;;;;;;;21.13;13.40;;;;;;;-5.95;100.00;96372.88;4988154;28;104838;-60
2021/12/23 06:31:41;;;;;;;20.50;13.30;;;;;;;-5.91;100.00;96371.63;4988221;28;103228;-60
2021/12/23 06:34:08;;;;;;;20.27;13.57;;;;;;;-5.88;100.00;96368.75;4991367;28;101891;-60
2021/12/23 06:36:36;;;;;;;21.70;14.40;;;;;;;-5.84;100.00;96372.66;4986878;28;105735;-60
2021/12/23 06:39:06;;;;;;;23.53;15.30;;;;;;;-5.98;100.00;96368.03;4999063;28;102241;-60
2021/12/23 06:41:33;;;;;;;25.30;16.07;;;;;;;-5.93;100.00;96363.22;4987629;28;105227;-60
2021/12/23 06:44:00;;;;;;;25.23;16.17;;;;;;;-5.91;100.00;96369.03;4987095;28;104258;-60
2021/12/23 06:46:27;;;;;;;22.70;14.97;;;;;;;-5.91;100.00;96363.03;4987814;28;101896;-60
2021/12/23 06:48:55;;;;;;;21.90;14.63;;;;;;;-6.03;100.00;96365.06;4987471;28;104928;-60
2021/12/23 06:51:22;;;;;;;23.63;15.37;;;;;;;-6.04;100.00;96370.38;4986871;28;105673;-60
2021/12/23 06:53:51;;;;;;;20.17;14.33;;;;;;;-6.14;100.00;96378.25;4987099;28;102448;-60
2021/12/23 06:56:18;;;;;;;22.63;14.73;;;;;;;-5.96;100.00;96388.56;4991184;28;102357;-60
2021/12/23 06:58:49;;;;;;;20.57;13.17;;;;;;;-5.98;100.00;96388.72;4987611;28;101755;-60
2021/12/23 07:01:18;;;;;;;18.70;12.73;;;;;;;-6.02;100.00;96392.56;5020801;28;105368;-60
2021/12/23 07:04:03;;;;;;;20.73;13.57;;;;;;;-5.96;100.00;96391.16;5020308;27;105695;-60
2021/12/23 07:06:31;;;;;;;20.20;12.83;;;;;;;-5.91;100.00;96394.94;4991112;28;101797;-60
2021/12/23 07:09:02;;;;;;;23.03;13.63;;;;;;;-5.89;100.00;96390.41;4992247;28;102359;-60
2021/12/23 07:11:28;;;;;;;22.60;13.40;;;;;;;-5.82;100.00;96393.22;4990324;28;105894;-60
2021/12/23 07:13:55;;;;;;;21.00;13.60;;;;;;;-5.92;100.00;96395.06;4998371;28;101854;-60
2021/12/23 07:16:22;;;;;;;17.47;12.40;;;;;;;-5.84;100.00;96395.94;5010599;28;104782;-60
2021/12/23 07:18:49;;;;;;;19.03;12.83;;;;;;;-5.84;100.00;96401.13;5014810;28;101696;-60
2021/12/23 07:21:17;;;;;;;18.83;13.13;;;;;;;-5.84;100.00;96401.13;5011628;28;102819;-60
2021/12/23 07:23:44;;;;;;;23.40;11.77;;;;;;;-6.05;100.00;96415.34;5009118;28;105761;-60
2021/12/23 07:26:13;;;;;;;19.10;12.83;;;;;;;-6.04;100.00;96409.22;5011723;28;101765;-60
2021/12/23 07:28:40;;;;;;;21.50;12.77;;;;;;;-5.79;100.00;96396.28;5010870;28;104828;-60
2021/12/23 07:31:06;;;;;;;18.60;12.37;;;;;;;-5.74;100.00;96401.03;5009803;28;105745;-60
2021/12/23 07:33:34;;;;;;;19.80;12.43;;;;;;;-5.85;100.00;96393.53;5010436;28;102073;-60
2021/12/23 07:36:02;;;;;;;18.87;12.30;;;;;;;-5.60;100.00;96395.28;5010485;28;105124;-60
2021/12/23 07:38:29;;;;;;;18.87;13.57;;;;;;;-5.60;100.00;96393.53;5013215;28;105402;-60
2021/12/23 07:40:56;;;;;;;21.87;14.03;;;;;;;-5.35;100.00;96390.09;5010371;28;104809;-60
2021/12/23 07:43:55;;;;;;;26.03;14.60;;;;;;;-5.53;100.00;96388.53;5009424;28;106202;-60
2021/12/23 07:46:21;;;;;;;25.00;14.77;;;;;;;-5.16;100.00;96396.84;5010091;28;102316;-60
2021/12/23 07:48:49;;;;;;;24.50;15.87;;;;;;;-5.15;100.00;96398.47;5010441;28;104970;-60
2021/12/23 07:51:16;;;;;;;22.27;14.90;;;;;;;-5.01;100.00;96398.75;5008577;28;105365;-60
2021/12/23 07:53:43;;;;;;;24.93;15.57;;;;;;;-5.08;100.00;96391.72;5010173;28;101849;-60
2021/12/23 07:56:10;;;;;;;21.90;15.07;;;;;;;-5.06;100.00;96400.97;5010055;28;105165;-60
2021/12/23 07:58:39;;;;;;;24.63;15.10;;;;;;;-4.84;100.00;96391.81;5009593;28;105747;-59
2021/12/23 08:01:05;;;;;;;24.17;15.97;;;;;;;-4.67;100.00;96391.75;5014857;28;102210;-59
2021/12/23 08:03:32;;;;;;;24.20;15.47;;;;;;;-4.84;100.00;96394.41;5009642;28;105631;-59
2021/12/23 08:05:59;;;;;;;27.07;16.33;;;;;;;-4.72;100.00;96401.78;5010071;28;102092;-59
2021/12/23 08:08:27;;;;;;;100.90;48.23;;;;;;;-4.63;100.00;96387.84;5009920;28;105727;-59
2021/12/23 08:10:54;;;;;;;58.70;32.70;;;;;;;-4.55;100.00;96392.25;5009202;28;106496;-59
2021/12/23 08:13:21;;;;;;;37.30;24.00;;;;;;;-4.59;100.00;96391.75;5009814;28;101982;-59
2021/12/23 08:15:50;;;;;;;27.20;17.80;;;;;;;-4.39;100.00;96398.31;5009112;28;105212;-59
2021/12/23 08:18:17;;;;;;;24.80;16.63;;;;;;;-4.32;100.00;96386.31;5009303;28;104972;-59
2021/12/23 08:20:45;;;;;;;21.93;14.47;;;;;;;-4.17;100.00;96395.09;5009727;28;101858;-59
2021/12/23 08:23:12;;;;;;;21.33;14.90;;;;;;;-4.09;100.00;96389.91;5012447;28;105377;-59
2021/12/23 08:25:39;;;;;;;23.30;15.33;;;;;;;-3.90;100.00;96384.41;5011019;28;102139;-59
2021/12/23 08:28:06;;;;;;;25.00;15.63;;;;;;;-3.64;100.00;96387.66;5009922;28;105523;-59
2021/12/23 08:30:34;;;;;;;23.73;16.37;;;;;;;-3.49;100.00;96385.22;5009102;28;105309;-59
2021/12/23 08:33:03;;;;;;;25.03;17.13;;;;;;;-3.34;100.00;96381.78;4989998;28;104650;-59
2021/12/23 08:35:30;;;;;;;23.60;16.63;;;;;;;-3.34;100.00;96384.38;4990616;28;102376;-59
2021/12/23 08:37:58;;;;;;;27.43;19.70;;;;;;;-3.21;100.00;96384.69;4989100;28;105056;-59
2021/12/23 08:40:27;;;;;;;33.30;20.00;;;;;;;-3.34;100.00;96391.38;4989448;28;102039;-59
2021/12/23 08:42:56;;;;;;;28.77;19.77;;;;;;;-3.06;100.00;96393.41;4989502;28;104997;-59
2021/12/23 08:45:24;;;;;;;25.10;15.97;;;;;;;-2.70;100.00;96394.59;4991977;28;105573;-59
2021/12/23 08:47:52;;;;;;;23.67;16.07;;;;;;;-2.49;100.00;96394.00;4989529;28;103803;-59
2021/12/23 08:50:20;;;;;;;22.10;15.67;;;;;;;-2.15;100.00;96382.28;4988892;28;105956;-59
2021/12/23 08:52:47;;;;;;;20.33;15.00;;;;;;;-2.18;100.00;96381.81;4989409;28;101898;-59
2021/12/23 08:55:16;;;;;;;25.00;16.97;;;;;;;-2.35;100.00;96380.28;4989342;28;105194;-59
2021/12/23 08:57:43;;;;;;;22.63;16.13;;;;;;;-2.09;100.00;96363.34;4988497;28;105719;-59
2021/12/23 09:00:13;;;;;;;24.90;16.50;;;;;;;-2.08;100.00;96364.19;4989288;28;102287;-59
2021/12/23 09:02:41;;;;;;;22.00;14.57;;;;;;;-1.91;100.00;96353.44;4990487;28;102796;-59
2021/12/23 09:05:09;;;;;;;23.93;16.23;;;;;;;-1.56;100.00;96363.28;4988365;28;104426;-59
2021/12/23 09:07:38;;;;;;;24.70;15.37;;;;;;;-1.65;100.00;96368.72;4992552;28;101936;-59
2021/12/23 09:10:07;;;;;;;22.53;15.07;;;;;;;-1.72;100.00;96360.78;4988618;28;104958;-59
2021/12/23 09:12:34;;;;;;;24.10;14.67;;;;;;;-1.56;100.00;96371.09;4989054;28;102115;-59
2021/12/23 09:15:01;;;;;;;17.73;12.73;;;;;;;-1.23;100.00;96363.75;4989021;28;105229;-59
2021/12/23 09:17:29;;;;;;;16.97;12.13;;;;;;;-1.12;100.00;96356.31;4988335;28;105097;-59
2021/12/23 09:19:56;;;;;;;16.80;11.93;;;;;;;-0.83;100.00;96350.28;4988798;28;101932;-59
2021/12/23 09:22:24;;;;;;;19.27;11.63;;;;;;;-0.84;100.00;96349.47;4988901;28;103996;-59
2021/12/23 09:24:57;;;;;;;16.10;11.40;;;;;;;-0.69;100.00;96334.63;4988154;28;104398;-59
2021/12/23 09:27:31;;;;;;;19.67;12.97;;;;;;;-0.82;100.00;96328.41;4988666;28;101934;-59
2021/12/23 09:32:52;;;;;;;17.00;11.17;;;;;;;-0.68;100.00;96320.56;4984649;28;102086;-59
2021/12/23 09:35:22;;;;;;;12.50;10.20;;;;;;;-0.55;100.00;96320.72;5024200;28;105471;-59
2021/12/23 09:37:49;;;;;;;12.67;10.63;;;;;;;-0.26;100.00;96307.59;5002803;28;104982;-59
2021/12/23 09:40:18;;;;;;;16.70;11.27;;;;;;;-0.23;100.00;96317.66;5006786;28;103035;-59
2021/12/23 09:42:46;;;;;;;13.60;10.77;;;;;;;-0.08;100.00;96321.03;5009722;28;103453;-59
2021/12/23 09:45:17;;;;;;;14.27;10.23;;;;;;;-0.13;100.00;96317.38;5007903;28;104980;-59
2021/12/23 09:47:46;;;;;;;15.97;11.90;;;;;;;0.00;100.00;96316.47;5009963;28;101855;-59
2021/12/23 09:50:18;;;;;;;13.77;10.80;;;;;;;-0.10;100.00;96312.56;5011360;28;104986;-59
2021/12/23 09:52:47;;;;;;;15.33;10.57;;;;;;;-0.17;100.00;96305.66;5004452;28;101931;-59
2021/12/23 09:55:17;;;;;;;19.57;10.57;;;;;;;-0.30;100.00;96314.16;4988353;28;105622;-59
2021/12/23 09:57:48;;;;;;;15.20;10.83;;;;;;;-0.28;100.00;96308.75;4989518;28;103050;-59
2021/12/23 10:00:17;;;;;;;17.00;11.50;;;;;;;-0.21;100.00;96305.22;4996261;28;102294;-67
2021/12/23 10:02:44;;;;;;;15.23;11.17;;;;;;;0.08;100.00;96302.47;5004828;28;105070;-61
2021/12/23 10:05:14;;;;;;;13.70;9.97;;;;;;;0.17;100.00;96285.69;5000147;28;102700;-60
2021/12/23 10:07:44;;;;;;;13.70;10.07;;;;;;;0.17;100.00;96273.41;5008217;28;101893;-60
2021/12/23 10:10:16;;;;;;;13.13;9.87;;;;;;;0.13;100.00;96282.59;5009227;28;102504;-60
2021/12/23 10:27:03;;;;;;;13.27;9.23;;;;;;;0.29;100.00;96282.34;5006880;28;103019;-60
2021/12/23 10:33:07;;;;;;;12.17;9.00;;;;;;;0.86;100.00;96274.25;5008008;28;105887;-60
2021/12/23 10:38:24;;;;;;;15.33;9.80;;;;;;;1.28;100.00;96263.59;5012568;28;101991;-60
2021/12/23 10:40:56;;;;;;;12.03;9.27;;;;;;;1.23;100.00;96258.13;5009252;28;102645;-60
2021/12/23 10:43:30;;;;;;;11.93;8.07;;;;;;;1.20;100.00;96263.78;5009987;28;101707;-60
2021/12/23 10:46:01;;;;;;;10.20;7.77;;;;;;;1.38;100.00;96267.44;5010227;28;102946;-60
2021/12/23 10:48:32;;;;;;;12.00;7.53;;;;;;;1.41;100.00;96258.38;5009172;28;103289;-60
2021/12/23 10:51:05;;;;;;;10.47;6.77;;;;;;;1.42;100.00;96260.81;5008534;28;102235;-60
2021/12/23 10:59:17;;;;;;;12.77;8.17;;;;;;;1.93;100.00;96235.75;5046747;27;103031;-61
2021/12/23 11:02:11;;;;;;;10.77;8.63;;;;;;;1.84;100.00;96234.31;5045799;27;101800;-60
2021/12/23 11:05:03;;;;;;;12.53;8.70;;;;;;;1.88;100.00;96237.34;5047222;27;102578;-60
2021/12/23 11:07:53;;;;;;;12.37;9.20;;;;;;;2.02;100.00;96223.25;5044495;27;103099;-60
2021/12/23 11:10:37;;;;;;;11.83;8.10;;;;;;;1.70;100.00;96226.63;5046217;27;102283;-60
2021/12/23 11:38:14;;;;;;;14.97;8.17;;;;;;;2.91;100.00;96154.22;5044378;27;106885;-60
2021/12/23 11:43:32;;;;;;;12.70;9.70;;;;;;;2.98;100.00;96133.97;5047617;27;105626;-60
2021/12/23 11:46:01;;;;;;;11.90;8.10;;;;;;;3.05;100.00;96132.94;5044795;27;102201;-60
2021/12/23 11:48:31;;;;;;;10.37;7.53;;;;;;;3.11;100.00;96128.69;5045069;27;104672;-60
2021/12/23 11:51:07;;;;;;;12.77;7.70;;;;;;;3.20;100.00;96128.22;5044760;27;105920;-60
2021/12/23 11:53:35;;;;;;;10.03;7.40;;;;;;;3.30;100.00;96125.13;5044901;27;102115;-60
2021/12/23 11:56:06;;;;;;;9.10;6.70;;;;;;;3.36;100.00;96119.84;5044675;27;105643;-60
2021/12/23 11:58:33;;;;;;;12.80;7.27;;;;;;;3.61;100.00;96111.97;5044363;27;105811;-60
2021/12/23 12:01:05;;;;;;;10.73;6.60;;;;;;;3.67;100.00;96119.00;5045050;27;102182;-60
2021/12/23 12:03:32;;;;;;;9.50;6.93;;;;;;;3.67;100.00;96114.53;5045300;27;104737;-60
2021/12/23 12:06:19;;;;;;;11.43;6.73;;;;;;;3.83;100.00;96114.00;5044578;27;105072;-60
2021/12/23 12:08:46;;;;;;;14.40;7.70;;;;;;;3.79;100.00;96106.78;5031131;28;103558;-61
2021/12/23 12:11:18;;;;;;;10.47;7.33;;;;;;;3.77;100.00;96108.81;5030887;28;105914;-60
2021/12/23 12:13:46;;;;;;;9.70;6.93;;;;;;;3.63;100.00;96118.63;5031018;28;101841;-60
2021/12/23 12:16:34;;;;;;;10.07;6.60;;;;;;;3.59;100.00;96117.44;5031249;28;105304;-60